Princesa Isabel, Brazil
Current Conditions -  °F | °C
As of 9:00 AM on Sunday 21 Dec 2014 (Local Time) from SBJU Reporting Station
Broken Clouds Broken Clouds  
Wind Chill: 84°   Ceiling: 2200
Heat Index: 88°   Visibility: 6mi
Dew Point: 70°   Wind: 12mph
Humidity: 62%   Direction: 100°E
Pressure: 30.09"   Gusts: NA
Location:  7.74°S, 37.99°W
Report Text: SBJU 211200Z 10010KT 9999 BKN022 29/21 Q1019
Loading
Personal Weather Stations






























Interactive Weather Map New forecast layout! Learn more

10-Day Weather Forecast

Advertisements
Track Severe Weather on mobile